sensor_id;sensor_type;location;lat;lon;timestamp;pressure;altitude;pressure_sealevel;temperature;humidity
64200;BME280;50516;52.272;5.136;2022-12-07T00:00:49;101852.28;;;5.36;81.28
64200;BME280;50516;52.272;5.136;2022-12-07T00:03:14;101849.78;;;5.35;81.28
64200;BME280;50516;52.272;5.136;2022-12-07T00:05:39;101847.25;;;5.40;81.02
64200;BME280;50516;52.272;5.136;2022-12-07T00:08:05;101841.16;;;5.44;81.13
64200;BME280;50516;52.272;5.136;2022-12-07T00:10:33;101848.47;;;5.51;81.34
64200;BME280;50516;52.272;5.136;2022-12-07T00:12:58;101846.41;;;5.46;81.29
64200;BME280;50516;52.272;5.136;2022-12-07T00:15:24;101848.47;;;5.44;81.32
64200;BME280;50516;52.272;5.136;2022-12-07T00:17:49;101840.31;;;5.37;81.17
64200;BME280;50516;52.272;5.136;2022-12-07T00:20:15;101843.91;;;5.38;81.68
64200;BME280;50516;52.272;5.136;2022-12-07T00:22:40;101828.41;;;5.32;81.46
64200;BME280;50516;52.272;5.136;2022-12-07T00:25:06;101830.69;;;5.28;81.46
64200;BME280;50516;52.272;5.136;2022-12-07T00:27:31;101832.78;;;5.33;81.68
64200;BME280;50516;52.272;5.136;2022-12-07T00:29:56;101829.25;;;5.25;80.95
64200;BME280;50516;52.272;5.136;2022-12-07T00:32:22;101824.44;;;5.21;80.79
64200;BME280;50516;52.272;5.136;2022-12-07T00:34:47;101833.44;;;5.21;81.00
64200;BME280;50516;52.272;5.136;2022-12-07T00:37:12;101822.56;;;5.21;81.12
64200;BME280;50516;52.272;5.136;2022-12-07T00:39:38;101822.97;;;5.18;80.55
64200;BME280;50516;52.272;5.136;2022-12-07T00:42:03;101815.03;;;5.17;80.66
64200;BME280;50516;52.272;5.136;2022-12-07T00:44:29;101818.41;;;5.12;80.22
64200;BME280;50516;52.272;5.136;2022-12-07T00:46:54;101813.81;;;5.06;80.46
64200;BME280;50516;52.272;5.136;2022-12-07T00:49:21;101815.03;;;5.03;80.60
64200;BME280;50516;52.272;5.136;2022-12-07T00:51:48;101815.88;;;4.97;80.52
64200;BME280;50516;52.272;5.136;2022-12-07T00:54:14;101810.69;;;5.02;80.36
64200;BME280;50516;52.272;5.136;2022-12-07T00:56:39;101810.88;;;4.94;79.63
64200;BME280;50516;52.272;5.136;2022-12-07T00:59:05;101812.53;;;4.95;79.73
64200;BME280;50516;52.272;5.136;2022-12-07T01:01:33;101813.38;;;4.96;79.70
64200;BME280;50516;52.272;5.136;2022-12-07T01:03:59;101817.59;;;4.91;79.69
64200;BME280;50516;52.272;5.136;2022-12-07T01:06:26;101812.56;;;4.88;79.33
64200;BME280;50516;52.272;5.136;2022-12-07T01:08:52;101810.69;;;4.82;79.41
64200;BME280;50516;52.272;5.136;2022-12-07T01:11:20;101810.47;;;4.84;79.65
64200;BME280;50516;52.272;5.136;2022-12-07T01:13:47;101815.91;;;4.84;79.38
64200;BME280;50516;52.272;5.136;2022-12-07T01:16:16;101812.34;;;4.83;79.64
64200;BME280;50516;52.272;5.136;2022-12-07T01:18:42;101812.78;;;4.80;78.97
64200;BME280;50516;52.272;5.136;2022-12-07T01:21:11;101810.25;;;4.79;79.25
64200;BME280;50516;52.272;5.136;2022-12-07T01:23:38;101809.84;;;4.75;79.45
64200;BME280;50516;52.272;5.136;2022-12-07T01:26:07;101821.78;;;4.74;79.46
64200;BME280;50516;52.272;5.136;2022-12-07T01:28:33;101820.09;;;4.73;79.43
64200;BME280;50516;52.272;5.136;2022-12-07T01:31:05;101827.00;;;4.69;78.99
64200;BME280;50516;52.272;5.136;2022-12-07T01:33:34;101823.88;;;4.79;79.29
64200;BME280;50516;52.272;5.136;2022-12-07T01:36:08;101830.75;;;4.81;79.36
64200;BME280;50516;52.272;5.136;2022-12-07T01:38:37;101834.75;;;4.72;78.65
64200;BME280;50516;52.272;5.136;2022-12-07T01:41:03;101835.16;;;4.75;80.33
64200;BME280;50516;52.272;5.136;2022-12-07T01:43:30;101832.44;;;4.75;82.07
64200;BME280;50516;52.272;5.136;2022-12-07T01:45:56;101825.53;;;4.86;81.56
64200;BME280;50516;52.272;5.136;2022-12-07T01:48:25;101828.66;;;5.03;81.15
64200;BME280;50516;52.272;5.136;2022-12-07T01:50:53;101818.41;;;5.12;81.03
64200;BME280;50516;52.272;5.136;2022-12-07T01:53:20;101819.63;;;5.23;80.84
64200;BME280;50516;52.272;5.136;2022-12-07T01:55:49;101817.09;;;5.28;80.82
64200;BME280;50516;52.272;5.136;2022-12-07T01:58:17;101811.25;;;5.24;80.99
64200;BME280;50516;52.272;5.136;2022-12-07T02:00:42;101818.38;;;5.19;80.90
64200;BME280;50516;52.272;5.136;2022-12-07T02:03:12;101809.38;;;5.18;81.13
64200;BME280;50516;52.272;5.136;2022-12-07T02:05:41;101810.22;;;5.19;81.02
64200;BME280;50516;52.272;5.136;2022-12-07T02:08:07;101814.41;;;5.15;80.89
64200;BME280;50516;52.272;5.136;2022-12-07T02:10:33;101811.69;;;5.08;80.68
64200;BME280;50516;52.272;5.136;2022-12-07T02:13:03;101809.19;;;5.06;80.75
64200;BME280;50516;52.272;5.136;2022-12-07T02:15:41;101809.59;;;5.10;80.91
64200;BME280;50516;52.272;5.136;2022-12-07T02:18:17;101801.00;;;5.13;81.14
64200;BME280;50516;52.272;5.136;2022-12-07T02:20:53;101810.00;;;5.07;80.80
64200;BME280;50516;52.272;5.136;2022-12-07T02:31:55;101798.69;;;5.10;80.72
64200;BME280;50516;52.272;5.136;2022-12-07T02:34:29;101792.44;;;5.09;81.02
64200;BME280;50516;52.272;5.136;2022-12-07T02:36:57;101795.75;;;5.11;80.96
64200;BME280;50516;52.272;5.136;2022-12-07T02:39:46;101798.28;;;5.13;81.18
64200;BME280;50516;52.272;5.136;2022-12-07T02:42:17;101809.59;;;5.10;81.08
64200;BME280;50516;52.272;5.136;2022-12-07T02:44:45;101800.59;;;5.03;81.19
64200;BME280;50516;52.272;5.136;2022-12-07T02:47:14;101787.41;;;5.06;81.78
64200;BME280;50516;52.272;5.136;2022-12-07T02:49:41;101797.03;;;5.09;81.71
64200;BME280;50516;52.272;5.136;2022-12-07T02:52:07;101787.63;;;5.05;82.38
64200;BME280;50516;52.272;5.136;2022-12-07T02:54:33;101788.66;;;5.04;82.40
64200;BME280;50516;52.272;5.136;2022-12-07T02:57:42;101788.44;;;5.05;82.65
64200;BME280;50516;52.272;5.136;2022-12-07T03:00:15;101790.56;;;4.97;81.82
64200;BME280;50516;52.272;5.136;2022-12-07T03:02:50;101795.38;;;4.94;81.81
64200;BME280;50516;52.272;5.136;2022-12-07T03:13:23;101789.53;;;4.78;81.35
64200;BME280;50516;52.272;5.136;2022-12-07T03:16:14;101789.13;;;4.74;80.90
64200;BME280;50516;52.272;5.136;2022-12-07T03:18:53;101788.50;;;4.72;81.24
64200;BME280;50516;52.272;5.136;2022-12-07T03:21:24;101792.47;;;4.76;81.24
64200;BME280;50516;52.272;5.136;2022-12-07T03:23:54;101795.84;;;4.78;80.98
64200;BME280;50516;52.272;5.136;2022-12-07T03:26:23;101795.38;;;4.81;81.28
64200;BME280;50516;52.272;5.136;2022-12-07T03:28:52;101792.88;;;4.86;80.96
64200;BME280;50516;52.272;5.136;2022-12-07T03:31:27;101798.53;;;4.91;80.79
64200;BME280;50516;52.272;5.136;2022-12-07T03:34:15;101809.22;;;4.93;80.60
64200;BME280;50516;52.272;5.136;2022-12-07T03:36:52;101800.41;;;4.98;80.98
64200;BME280;50516;52.272;5.136;2022-12-07T03:39:36;101793.28;;;5.03;81.06
64200;BME280;50516;52.272;5.136;2022-12-07T03:42:05;101794.09;;;5.04;81.10
64200;BME280;50516;52.272;5.136;2022-12-07T03:44:32;101782.41;;;4.97;81.34
64200;BME280;50516;52.272;5.136;2022-12-07T03:49:54;101784.69;;;5.06;81.91
64200;BME280;50516;52.272;5.136;2022-12-07T03:52:26;101775.69;;;5.06;81.82
64200;BME280;50516;52.272;5.136;2022-12-07T03:55:09;101771.50;;;4.97;81.68
64200;BME280;50516;52.272;5.136;2022-12-07T03:57:37;101765.88;;;4.91;82.40
64200;BME280;50516;52.272;5.136;2022-12-07T04:00:05;101761.88;;;4.87;82.38
64200;BME280;50516;52.272;5.136;2022-12-07T04:02:31;101755.84;;;4.85;82.55
64200;BME280;50516;52.272;5.136;2022-12-07T04:04:58;101769.44;;;4.85;82.33
64200;BME280;50516;52.272;5.136;2022-12-07T04:07:23;101765.88;;;4.85;82.31
64200;BME280;50516;52.272;5.136;2022-12-07T04:09:49;101763.16;;;4.91;81.86
64200;BME280;50516;52.272;5.136;2022-12-07T04:12:14;101764.38;;;4.96;82.39
64200;BME280;50516;52.272;5.136;2022-12-07T04:14:40;101783.25;;;4.77;82.73
64200;BME280;50516;52.272;5.136;2022-12-07T04:17:05;101790.38;;;4.71;84.40
64200;BME280;50516;52.272;5.136;2022-12-07T04:19:32;101779.69;;;4.63;84.95
64200;BME280;50516;52.272;5.136;2022-12-07T04:22:00;101765.66;;;4.73;84.70
64200;BME280;50516;52.272;5.136;2022-12-07T04:24:26;101751.66;;;4.89;84.88
64200;BME280;50516;52.272;5.136;2022-12-07T04:26:52;101757.47;;;5.06;84.85
64200;BME280;50516;52.272;5.136;2022-12-07T04:29:17;101761.22;;;5.19;84.42
64200;BME280;50516;52.272;5.136;2022-12-07T04:31:43;101758.50;;;5.19;84.40
64200;BME280;50516;52.272;5.136;2022-12-07T04:34:09;101755.56;;;5.20;84.66
64200;BME280;50516;52.272;5.136;2022-12-07T04:36:34;101763.31;;;5.10;83.72
64200;BME280;50516;52.272;5.136;2022-12-07T04:39:00;101766.25;;;5.02;83.30
64200;BME280;50516;52.272;5.136;2022-12-07T04:41:26;101760.44;;;4.91;83.53
64200;BME280;50516;52.272;5.136;2022-12-07T04:43:54;101765.06;;;4.91;83.72
64200;BME280;50516;52.272;5.136;2022-12-07T04:46:22;101759.59;;;4.91;83.54
64200;BME280;50516;52.272;5.136;2022-12-07T04:48:47;101755.84;;;4.85;83.16
64200;BME280;50516;52.272;5.136;2022-12-07T04:51:15;101749.97;;;4.82;83.02
64200;BME280;50516;52.272;5.136;2022-12-07T04:53:43;101758.16;;;4.75;83.31
64200;BME280;50516;52.272;5.136;2022-12-07T04:56:08;101753.13;;;4.72;83.37
64200;BME280;50516;52.272;5.136;2022-12-07T04:58:34;101750.41;;;4.72;83.36
64200;BME280;50516;52.272;5.136;2022-12-07T05:00:59;101755.44;;;4.68;83.57
64200;BME280;50516;52.272;5.136;2022-12-07T05:03:24;101749.75;;;4.70;83.42
64200;BME280;50516;52.272;5.136;2022-12-07T05:05:50;101764.44;;;4.62;82.93
64200;BME280;50516;52.272;5.136;2022-12-07T05:08:15;101749.16;;;4.54;82.96
64200;BME280;50516;52.272;5.136;2022-12-07T05:10:40;101750.00;;;4.55;82.52
64200;BME280;50516;52.272;5.136;2022-12-07T05:13:06;101748.34;;;4.54;82.56
64200;BME280;50516;52.272;5.136;2022-12-07T05:15:31;101747.50;;;4.47;82.58
64200;BME280;50516;52.272;5.136;2022-12-07T05:17:56;101749.38;;;4.46;82.54
64200;BME280;50516;52.272;5.136;2022-12-07T05:20:22;101750.22;;;4.47;82.00
64200;BME280;50516;52.272;5.136;2022-12-07T05:22:47;101751.91;;;4.41;83.07
64200;BME280;50516;52.272;5.136;2022-12-07T05:25:12;101749.38;;;4.46;82.81
64200;BME280;50516;52.272;5.136;2022-12-07T05:27:37;101744.75;;;4.53;83.49
64200;BME280;50516;52.272;5.136;2022-12-07T05:30:04;101754.00;;;4.52;82.22
64200;BME280;50516;52.272;5.136;2022-12-07T05:32:30;101744.75;;;4.53;81.98
64200;BME280;50516;52.272;5.136;2022-12-07T05:34:55;101754.00;;;4.46;82.33
64200;BME280;50516;52.272;5.136;2022-12-07T05:37:20;101746.25;;;4.49;82.12
64200;BME280;50516;52.272;5.136;2022-12-07T05:39:46;101750.63;;;4.50;81.37
64200;BME280;50516;52.272;5.136;2022-12-07T05:42:11;101753.13;;;4.58;81.68
64200;BME280;50516;52.272;5.136;2022-12-07T05:44:37;101755.66;;;4.67;81.70
64200;BME280;50516;52.272;5.136;2022-12-07T05:47:02;101747.06;;;4.63;81.69
64200;BME280;50516;52.272;5.136;2022-12-07T05:49:28;101759.41;;;4.66;81.40
64200;BME280;50516;52.272;5.136;2022-12-07T05:51:53;101747.03;;;4.70;82.18
64200;BME280;50516;52.272;5.136;2022-12-07T05:54:19;101747.69;;;4.72;81.78
64200;BME280;50516;52.272;5.136;2022-12-07T05:56:44;101748.31;;;4.74;81.68
64200;BME280;50516;52.272;5.136;2022-12-07T05:59:09;101735.53;;;4.81;82.31
64200;BME280;50516;52.272;5.136;2022-12-07T06:02:01;101741.81;;;4.82;82.13
64200;BME280;50516;52.272;5.136;2022-12-07T06:04:34;101743.91;;;4.73;82.46
64200;BME280;50516;52.272;5.136;2022-12-07T06:07:00;101748.09;;;4.75;82.22
64200;BME280;50516;52.272;5.136;2022-12-07T06:09:27;101749.75;;;4.70;81.76
64200;BME280;50516;52.272;5.136;2022-12-07T06:11:53;101745.59;;;4.67;81.79
64200;BME280;50516;52.272;5.136;2022-12-07T06:14:37;101747.50;;;4.67;81.96
64200;BME280;50516;52.272;5.136;2022-12-07T06:17:03;101743.91;;;4.66;81.51
64200;BME280;50516;52.272;5.136;2022-12-07T06:19:28;101746.84;;;4.65;81.62
64200;BME280;50516;52.272;5.136;2022-12-07T06:21:54;101743.50;;;4.63;81.72
64200;BME280;50516;52.272;5.136;2022-12-07T06:24:19;101746.44;;;4.61;81.65
64200;BME280;50516;52.272;5.136;2022-12-07T06:26:45;101751.06;;;4.61;81.83
64200;BME280;50516;52.272;5.136;2022-12-07T06:29:11;101755.66;;;4.53;81.89
64200;BME280;50516;52.272;5.136;2022-12-07T06:31:37;101738.91;;;4.56;81.97
64200;BME280;50516;52.272;5.136;2022-12-07T06:34:11;101748.53;;;4.66;82.26
64200;BME280;50516;52.272;5.136;2022-12-07T06:36:37;101753.97;;;4.66;82.25
64200;BME280;50516;52.272;5.136;2022-12-07T06:39:03;101755.66;;;4.67;81.90
64200;BME280;50516;52.272;5.136;2022-12-07T06:41:28;101751.84;;;4.74;81.87
64200;BME280;50516;52.272;5.136;2022-12-07T06:43:54;101755.44;;;4.75;81.80
64200;BME280;50516;52.272;5.136;2022-12-07T06:46:20;101743.91;;;4.73;82.10
64200;BME280;50516;52.272;5.136;2022-12-07T06:48:45;101752.28;;;4.71;82.54
64200;BME280;50516;52.272;5.136;2022-12-07T06:51:11;101752.28;;;4.71;83.08
64200;BME280;50516;52.272;5.136;2022-12-07T06:53:36;101749.34;;;4.73;82.99
64200;BME280;50516;52.272;5.136;2022-12-07T06:56:02;101751.03;;;4.74;83.18
64200;BME280;50516;52.272;5.136;2022-12-07T06:58:28;101751.44;;;4.71;82.51
64200;BME280;50516;52.272;5.136;2022-12-07T07:00:53;101748.13;;;4.69;83.11
64200;BME280;50516;52.272;5.136;2022-12-07T07:03:18;101755.66;;;4.67;83.44
64200;BME280;50516;52.272;5.136;2022-12-07T07:05:44;101741.81;;;4.62;82.72
64200;BME280;50516;52.272;5.136;2022-12-07T07:08:11;101744.97;;;4.58;82.50
64200;BME280;50516;52.272;5.136;2022-12-07T07:10:37;101733.88;;;4.53;82.16
64200;BME280;50516;52.272;5.136;2022-12-07T07:13:03;101742.06;;;4.40;82.23
64200;BME280;50516;52.272;5.136;2022-12-07T07:15:28;101742.69;;;4.42;82.66
64200;BME280;50516;52.272;5.136;2022-12-07T07:17:54;101746.47;;;4.41;82.48
64200;BME280;50516;52.272;5.136;2022-12-07T07:20:19;101751.03;;;4.34;82.10
64200;BME280;50516;52.272;5.136;2022-12-07T07:22:45;101745.59;;;4.27;82.36
64200;BME280;50516;52.272;5.136;2022-12-07T07:25:10;101749.56;;;4.25;82.25
64200;BME280;50516;52.272;5.136;2022-12-07T07:27:36;101749.97;;;4.15;81.96
64200;BME280;50516;52.272;5.136;2022-12-07T07:30:01;101751.25;;;4.12;82.33
64200;BME280;50516;52.272;5.136;2022-12-07T07:32:27;101753.13;;;4.12;82.18
64200;BME280;50516;52.272;5.136;2022-12-07T07:34:53;101754.38;;;4.16;81.71
64200;BME280;50516;52.272;5.136;2022-12-07T07:37:18;101757.50;;;4.19;81.48
64200;BME280;50516;52.272;5.136;2022-12-07T07:39:43;101749.34;;;4.19;81.30
64200;BME280;50516;52.272;5.136;2022-12-07T07:42:09;101750.63;;;4.24;80.96
64200;BME280;50516;52.272;5.136;2022-12-07T07:44:34;101748.94;;;4.36;81.30
64200;BME280;50516;52.272;5.136;2022-12-07T07:47:00;101764.44;;;4.49;81.52
64200;BME280;50516;52.272;5.136;2022-12-07T07:49:25;101762.97;;;4.53;81.73
64200;BME280;50516;52.272;5.136;2022-12-07T07:51:51;101779.50;;;4.31;81.95
64200;BME280;50516;52.272;5.136;2022-12-07T07:54:16;101788.06;;;4.28;84.79
64200;BME280;50516;52.272;5.136;2022-12-07T07:56:42;101776.38;;;4.41;85.10
64200;BME280;50516;52.272;5.136;2022-12-07T07:59:07;101768.00;;;4.63;84.66
64200;BME280;50516;52.272;5.136;2022-12-07T08:01:33;101759.00;;;4.69;84.30
64200;BME280;50516;52.272;5.136;2022-12-07T08:03:58;101762.75;;;4.88;83.58
64200;BME280;50516;52.272;5.136;2022-12-07T08:06:24;101776.53;;;5.06;83.07
64200;BME280;50516;52.272;5.136;2022-12-07T08:08:49;101775.66;;;5.12;82.13
64200;BME280;50516;52.272;5.136;2022-12-07T08:11:14;101776.72;;;5.11;82.53
64200;BME280;50516;52.272;5.136;2022-12-07T08:13:40;101762.88;;;5.13;82.56
64200;BME280;50516;52.272;5.136;2022-12-07T08:16:07;101769.59;;;5.17;82.14
64200;BME280;50516;52.272;5.136;2022-12-07T08:18:38;101767.69;;;5.18;82.72
64200;BME280;50516;52.272;5.136;2022-12-07T08:21:04;101768.97;;;5.22;82.33
64200;BME280;50516;52.272;5.136;2022-12-07T08:23:30;101778.53;;;5.31;82.78
64200;BME280;50516;52.272;5.136;2022-12-07T08:26:07;101779.38;;;5.38;82.82
64200;BME280;50516;52.272;5.136;2022-12-07T08:28:33;101781.47;;;5.43;82.91
64200;BME280;50516;52.272;5.136;2022-12-07T08:31:07;101784.56;;;5.53;83.04
64200;BME280;50516;52.272;5.136;2022-12-07T08:33:34;101786.88;;;5.49;82.28
64200;BME280;50516;52.272;5.136;2022-12-07T08:36:01;101784.97;;;5.50;82.64
64200;BME280;50516;52.272;5.136;2022-12-07T08:38:26;101782.44;;;5.55;82.99
64200;BME280;50516;52.272;5.136;2022-12-07T08:40:55;101777.44;;;5.45;83.20
64200;BME280;50516;52.272;5.136;2022-12-07T08:43:21;101770.13;;;5.46;83.62
64200;BME280;50516;52.272;5.136;2022-12-07T08:45:48;101768.56;;;5.63;83.14
64200;BME280;50516;52.272;5.136;2022-12-07T08:48:19;101765.41;;;5.66;82.76
64200;BME280;50516;52.272;5.136;2022-12-07T08:50:48;101764.06;;;5.82;82.30
64200;BME280;50516;52.272;5.136;2022-12-07T08:53:13;101762.16;;;5.96;82.24
64200;BME280;50516;52.272;5.136;2022-12-07T08:55:39;101755.25;;;5.87;82.68
64200;BME280;50516;52.272;5.136;2022-12-07T08:58:04;101756.94;;;5.88;82.21
64200;BME280;50516;52.272;5.136;2022-12-07T09:00:30;101762.00;;;5.78;83.52
64200;BME280;50516;52.272;5.136;2022-12-07T09:02:55;101768.09;;;5.80;83.52
64200;BME280;50516;52.272;5.136;2022-12-07T09:05:21;101759.88;;;5.87;83.41
64200;BME280;50516;52.272;5.136;2022-12-07T09:07:49;101758.16;;;5.92;83.31
64200;BME280;50516;52.272;5.136;2022-12-07T09:10:16;101764.44;;;5.99;83.02
64200;BME280;50516;52.272;5.136;2022-12-07T09:12:42;101761.91;;;6.05;82.58
64200;BME280;50516;52.272;5.136;2022-12-07T09:15:08;101760.59;;;6.07;82.63
64200;BME280;50516;52.272;5.136;2022-12-07T09:17:33;101761.47;;;6.08;82.62
64200;BME280;50516;52.272;5.136;2022-12-07T09:19:59;101760.16;;;6.17;82.55
64200;BME280;50516;52.272;5.136;2022-12-07T09:22:29;101766.75;;;6.28;82.40
64200;BME280;50516;52.272;5.136;2022-12-07T09:24:57;101771.13;;;6.35;82.07
64200;BME280;50516;52.272;5.136;2022-12-07T09:27:22;101771.72;;;6.37;82.53
64200;BME280;50516;52.272;5.136;2022-12-07T09:29:47;101772.16;;;6.34;82.96
64200;BME280;50516;52.272;5.136;2022-12-07T09:32:13;101761.66;;;6.38;82.89
64200;BME280;50516;52.272;5.136;2022-12-07T09:34:39;101759.28;;;6.48;83.04
64200;BME280;50516;52.272;5.136;2022-12-07T09:37:04;101761.84;;;6.43;83.24
64200;BME280;50516;52.272;5.136;2022-12-07T09:39:30;101765.22;;;6.38;83.00
64200;BME280;50516;52.272;5.136;2022-12-07T09:41:57;101753.94;;;6.35;83.93
64200;BME280;50516;52.272;5.136;2022-12-07T09:44:25;101747.69;;;6.53;83.34
64200;BME280;50516;52.272;5.136;2022-12-07T09:46:51;101758.47;;;6.66;83.07
64200;BME280;50516;52.272;5.136;2022-12-07T09:49:20;101750.91;;;6.68;82.82
64200;BME280;50516;52.272;5.136;2022-12-07T09:51:46;101753.25;;;6.65;83.34
64200;BME280;50516;52.272;5.136;2022-12-07T09:54:15;101754.78;;;6.61;83.46
64200;BME280;50516;52.272;5.136;2022-12-07T09:56:41;101758.09;;;6.63;83.50
64200;BME280;50516;52.272;5.136;2022-12-07T09:59:14;101757.28;;;6.62;84.07
64200;BME280;50516;52.272;5.136;2022-12-07T10:01:41;101752.66;;;6.63;83.74
64200;BME280;50516;52.272;5.136;2022-12-07T10:04:25;101746.38;;;6.81;83.76
64200;BME280;50516;52.272;5.136;2022-12-07T10:06:52;101750.97;;;7.05;82.80
64200;BME280;50516;52.272;5.136;2022-12-07T10:09:19;101751.03;;;6.99;83.64
64200;BME280;50516;52.272;5.136;2022-12-07T10:12:07;101743.84;;;7.04;83.97
64200;BME280;50516;52.272;5.136;2022-12-07T10:14:36;101738.00;;;7.19;83.29
64200;BME280;50516;52.272;5.136;2022-12-07T10:17:28;101741.56;;;7.38;82.38
64200;BME280;50516;52.272;5.136;2022-12-07T10:20:18;101731.97;;;7.47;82.17
64200;BME280;50516;52.272;5.136;2022-12-07T10:23:13;101738.06;;;7.31;81.94
64200;BME280;50516;52.272;5.136;2022-12-07T10:25:39;101737.25;;;7.30;82.18
64200;BME280;50516;52.272;5.136;2022-12-07T10:30:57;101731.28;;;7.52;81.50
64200;BME280;50516;52.272;5.136;2022-12-07T10:33:36;101724.75;;;7.53;81.37
64200;BME280;50516;52.272;5.136;2022-12-07T10:36:35;101720.59;;;7.50;81.02
64200;BME280;50516;52.272;5.136;2022-12-07T10:39:24;101726.38;;;7.42;81.43
64200;BME280;50516;52.272;5.136;2022-12-07T10:42:01;101726.41;;;7.24;81.42
64200;BME280;50516;52.272;5.136;2022-12-07T10:44:29;101721.44;;;6.95;81.86
64200;BME280;50516;52.272;5.136;2022-12-07T11:07:19;101694.91;;;6.84;83.29
64200;BME280;50516;52.272;5.136;2022-12-07T11:20:44;101693.44;;;7.37;81.21
64200;BME280;50516;52.272;5.136;2022-12-07T11:34:22;101665.75;;;7.64;79.37
64200;BME280;50516;52.272;5.136;2022-12-07T11:36:52;101677.41;;;7.71;79.01
64200;BME280;50516;52.272;5.136;2022-12-07T11:44:50;101666.72;;;7.70;78.96
64200;BME280;50516;52.272;5.136;2022-12-07T11:47:36;101660.81;;;7.84;78.66
64200;BME280;50516;52.272;5.136;2022-12-07T11:52:53;101644.69;;;7.95;79.24
64200;BME280;50516;52.272;5.136;2022-12-07T11:55:39;101648.81;;;7.97;79.24
64200;BME280;50516;52.272;5.136;2022-12-07T12:00:50;101632.22;;;8.34;77.87
64200;BME280;50516;52.272;5.136;2022-12-07T12:03:25;101640.47;;;8.58;77.10
64200;BME280;50516;52.272;5.136;2022-12-07T12:05:56;101641.53;;;8.69;75.49
64200;BME280;50516;52.272;5.136;2022-12-07T12:08:32;101641.66;;;8.50;76.02
64200;BME280;50516;52.272;5.136;2022-12-07T12:16:35;101653.72;;;6.86;80.45
64200;BME280;50516;52.272;5.136;2022-12-07T12:21:49;101655.94;;;6.08;86.21
64200;BME280;50516;52.272;5.136;2022-12-07T12:24:23;101641.75;;;6.25;83.86
64200;BME280;50516;52.272;5.136;2022-12-07T12:26:52;101626.34;;;6.55;84.24
64200;BME280;50516;52.272;5.136;2022-12-07T12:29:28;101624.53;;;6.68;83.64
64200;BME280;50516;52.272;5.136;2022-12-07T12:32:15;101626.38;;;6.74;83.71
64200;BME280;50516;52.272;5.136;2022-12-07T12:37:42;101613.91;;;6.78;85.12
64200;BME280;50516;52.272;5.136;2022-12-07T12:42:50;101613.97;;;7.08;83.46
64200;BME280;50516;52.272;5.136;2022-12-07T12:45:31;101609.16;;;7.22;82.62
64200;BME280;50516;52.272;5.136;2022-12-07T12:47:58;101610.81;;;7.23;82.21
64200;BME280;50516;52.272;5.136;2022-12-07T12:50:32;101601.94;;;7.28;82.64
64200;BME280;50516;52.272;5.136;2022-12-07T12:53:23;101608.31;;;7.22;83.03
64200;BME280;50516;52.272;5.136;2022-12-07T12:58:29;101600.50;;;7.25;82.95
64200;BME280;50516;52.272;5.136;2022-12-07T13:03:59;101600.91;;;7.41;81.69
64200;BME280;50516;52.272;5.136;2022-12-07T13:08:51;101604.25;;;7.43;82.03
64200;BME280;50516;52.272;5.136;2022-12-07T13:11:29;101594.63;;;7.40;82.33
64200;BME280;50516;52.272;5.136;2022-12-07T13:16:59;101591.00;;;7.28;82.22
64200;BME280;50516;52.272;5.136;2022-12-07T13:19:57;101592.81;;;7.34;81.78
64200;BME280;50516;52.272;5.136;2022-12-07T13:28:08;101567.06;;;7.11;78.14
64200;BME280;50516;52.272;5.136;2022-12-07T13:30:47;101557.03;;;7.24;77.40
64200;BME280;50516;52.272;5.136;2022-12-07T13:33:17;101549.53;;;7.19;77.34
64200;BME280;50516;52.272;5.136;2022-12-07T13:35:45;101550.44;;;7.43;77.41
64200;BME280;50516;52.272;5.136;2022-12-07T13:38:37;101547.59;;;7.50;79.26
64200;BME280;50516;52.272;5.136;2022-12-07T13:43:51;101544.03;;;7.49;80.30
64200;BME280;50516;52.272;5.136;2022-12-07T13:46:24;101542.38;;;7.48;80.66
64200;BME280;50516;52.272;5.136;2022-12-07T13:48:51;101542.25;;;7.43;81.29
64200;BME280;50516;52.272;5.136;2022-12-07T13:51:25;101539.03;;;7.46;81.34
64200;BME280;50516;52.272;5.136;2022-12-07T13:54:09;101531.44;;;7.48;80.87
64200;BME280;50516;52.272;5.136;2022-12-07T13:56:35;101540.09;;;7.45;81.77
64200;BME280;50516;52.272;5.136;2022-12-07T13:59:02;101534.63;;;7.45;81.81
64200;BME280;50516;52.272;5.136;2022-12-07T14:01:30;101534.63;;;7.45;82.05
64200;BME280;50516;52.272;5.136;2022-12-07T14:04:17;101532.97;;;7.44;82.18
64200;BME280;50516;52.272;5.136;2022-12-07T14:06:51;101536.31;;;7.46;82.25
64200;BME280;50516;52.272;5.136;2022-12-07T14:09:18;101526.56;;;7.50;82.04
64200;BME280;50516;52.272;5.136;2022-12-07T14:11:52;101523.84;;;7.50;82.51
64200;BME280;50516;52.272;5.136;2022-12-07T14:14:25;101523.38;;;7.54;82.82
64200;BME280;50516;52.272;5.136;2022-12-07T14:17:16;101525.03;;;7.55;82.76
64200;BME280;50516;52.272;5.136;2022-12-07T14:19:53;101519.00;;;7.53;82.90
64200;BME280;50516;52.272;5.136;2022-12-07T14:22:38;101511.72;;;7.46;82.62
64200;BME280;50516;52.272;5.136;2022-12-07T14:27:37;101505.72;;;7.26;83.23
64200;BME280;50516;52.272;5.136;2022-12-07T14:30:04;101512.63;;;7.28;82.02
64200;BME280;50516;52.272;5.136;2022-12-07T14:32:30;101532.88;;;6.79;80.81
64200;BME280;50516;52.272;5.136;2022-12-07T14:37:27;101534.34;;;6.26;81.91
64200;BME280;50516;52.272;5.136;2022-12-07T14:39:53;101521.84;;;6.36;82.43
64200;BME280;50516;52.272;5.136;2022-12-07T14:42:18;101512.13;;;6.40;81.91
64200;BME280;50516;52.272;5.136;2022-12-07T14:44:45;101516.97;;;6.57;82.94
64200;BME280;50516;52.272;5.136;2022-12-07T14:47:11;101518.19;;;6.61;82.76
64200;BME280;50516;52.272;5.136;2022-12-07T14:49:37;101519.16;;;6.67;83.13
64200;BME280;50516;52.272;5.136;2022-12-07T14:52:03;101513.94;;;6.65;83.74
64200;BME280;50516;52.272;5.136;2022-12-07T14:54:31;101515.69;;;6.60;83.97
64200;BME280;50516;52.272;5.136;2022-12-07T14:56:57;101511.97;;;6.54;84.44
64200;BME280;50516;52.272;5.136;2022-12-07T14:59:22;101505.31;;;6.50;84.65
64200;BME280;50516;52.272;5.136;2022-12-07T15:01:48;101498.19;;;6.49;85.02
64200;BME280;50516;52.272;5.136;2022-12-07T15:04:13;101499.72;;;6.45;84.99